sensor_id;sensor_type;location;lat;lon;timestamp;pressure;altitude;pressure_sealevel;temperature;humidity
22775;BME280;11554;51.106;3.684;2023-07-20T00:00:00;101480.84999999999;;;16.20;100.0
22775;BME280;11554;51.106;3.684;2023-07-20T00:05:00;101487.14;;;16.05;100.0
22775;BME280;11554;51.106;3.684;2023-07-20T00:10:00;101492.39;;;15.92;100.0
22775;BME280;11554;51.106;3.684;2023-07-20T00:15:00;101490.61;;;15.82;100.0
22775;BME280;11554;51.106;3.684;2023-07-20T00:20:00;101494.7;;;15.79;100.0
22775;BME280;11554;51.106;3.684;2023-07-20T00:25:00;101490.95;;;15.70;100.0
22775;BME280;11554;51.106;3.684;2023-07-20T00:30:00;101493.38;;;15.63;100.0
22775;BME280;11554;51.106;3.684;2023-07-20T00:35:00;101500.48000000001;;;15.51;100.0
22775;BME280;11554;51.106;3.684;2023-07-20T00:40:00;101504.06;;;15.48;100.0
22775;BME280;11554;51.106;3.684;2023-07-20T00:45:00;101502.94;;;15.49;100.0
22775;BME280;11554;51.106;3.684;2023-07-20T00:50:00;101500.05;;;15.44;100.0
22775;BME280;11554;51.106;3.684;2023-07-20T00:55:00;101498.26000000001;;;15.32;100.0
22775;BME280;11554;51.106;3.684;2023-07-20T01:00:00;101502.15;;;15.23;100.0
22775;BME280;11554;51.106;3.684;2023-07-20T01:05:00;101503.67;;;15.14;100.0
22775;BME280;11554;51.106;3.684;2023-07-20T01:10:01;101501.15;;;15.07;100.0
22775;BME280;11554;51.106;3.684;2023-07-20T01:15:00;101504.8;;;14.90;100.0
22775;BME280;11554;51.106;3.684;2023-07-20T01:20:00;101509.99;;;14.80;100.0
22775;BME280;11554;51.106;3.684;2023-07-20T01:25:08;101513.01;;;14.79;100.0
22775;BME280;11554;51.106;3.684;2023-07-20T01:30:03;101511.11;;;14.74;100.0
22775;BME280;11554;51.106;3.684;2023-07-20T01:35:00;101510.05;;;14.69;100.0
22775;BME280;11554;51.106;3.684;2023-07-20T01:40:00;101503.2;;;14.62;100.0
22775;BME280;11554;51.106;3.684;2023-07-20T01:45:00;101501.08;;;14.48;100.0
22775;BME280;11554;51.106;3.684;2023-07-20T01:50:00;101502.52;;;14.29;100.0
22775;BME280;11554;51.106;3.684;2023-07-20T01:55:00;101499.86;;;14.19;100.0
22775;BME280;11554;51.106;3.684;2023-07-20T02:00:00;101499.97;;;14.22;100.0
22775;BME280;11554;51.106;3.684;2023-07-20T02:05:00;101490.23;;;14.29;100.0
22775;BME280;11554;51.106;3.684;2023-07-20T02:10:00;101491.06;;;14.40;100.0
22775;BME280;11554;51.106;3.684;2023-07-20T02:15:00;101495.7;;;14.45;100.0
22775;BME280;11554;51.106;3.684;2023-07-20T02:20:00;101494.48;;;14.56;100.0
22775;BME280;11554;51.106;3.684;2023-07-20T02:25:00;101506.26999999999;;;14.61;100.0
22775;BME280;11554;51.106;3.684;2023-07-20T02:30:00;101509.0;;;14.67;100.0
22775;BME280;11554;51.106;3.684;2023-07-20T02:35:00;101500.58;;;14.78;100.0
22775;BME280;11554;51.106;3.684;2023-07-20T02:40:00;101503.68999999999;;;14.79;100.0
22775;BME280;11554;51.106;3.684;2023-07-20T02:45:01;101500.56;;;14.86;100.0
22775;BME280;11554;51.106;3.684;2023-07-20T02:50:00;101506.98999999999;;;14.89;100.0
22775;BME280;11554;51.106;3.684;2023-07-20T02:55:00;101509.72;;;14.91;100.0
22775;BME280;11554;51.106;3.684;2023-07-20T03:00:00;101503.59;;;14.92;100.0
22775;BME280;11554;51.106;3.684;2023-07-20T03:05:00;101505.14;;;14.95;100.0
22775;BME280;11554;51.106;3.684;2023-07-20T03:10:00;101506.98;;;14.98;100.0
22775;BME280;11554;51.106;3.684;2023-07-20T03:15:00;101508.2;;;14.98;100.0
22775;BME280;11554;51.106;3.684;2023-07-20T03:20:00;101509.83;;;14.99;100.0
22775;BME280;11554;51.106;3.684;2023-07-20T03:25:00;101518.05;;;14.99;100.0
22775;BME280;11554;51.106;3.684;2023-07-20T03:30:00;101519.51000000001;;;15.02;100.0
22775;BME280;11554;51.106;3.684;2023-07-20T03:35:00;101521.5;;;15.06;100.0
22775;BME280;11554;51.106;3.684;2023-07-20T03:40:00;101521.26;;;15.05;100.0
22775;BME280;11554;51.106;3.684;2023-07-20T03:45:00;101523.86;;;15.07;100.0
22775;BME280;11554;51.106;3.684;2023-07-20T03:50:00;101524.55;;;15.07;100.0
22775;BME280;11554;51.106;3.684;2023-07-20T03:55:00;101526.36;;;15.07;100.0
22775;BME280;11554;51.106;3.684;2023-07-20T04:00:00;101524.47;;;15.06;100.0
22775;BME280;11554;51.106;3.684;2023-07-20T04:05:00;101525.09;;;15.08;100.0
22775;BME280;11554;51.106;3.684;2023-07-20T04:10:00;101522.0;;;15.11;100.0
22775;BME280;11554;51.106;3.684;2023-07-20T04:15:00;101521.77;;;15.14;100.0
22775;BME280;11554;51.106;3.684;2023-07-20T04:20:00;101524.29;;;15.17;100.0
22775;BME280;11554;51.106;3.684;2023-07-20T04:25:00;101527.23;;;15.20;100.0
22775;BME280;11554;51.106;3.684;2023-07-20T04:30:00;101532.72;;;15.22;100.0
22775;BME280;11554;51.106;3.684;2023-07-20T04:35:00;101532.54;;;15.27;100.0
22775;BME280;11554;51.106;3.684;2023-07-20T04:40:00;101532.65;;;15.32;100.0
22775;BME280;11554;51.106;3.684;2023-07-20T04:45:00;101534.12;;;15.37;100.0
22775;BME280;11554;51.106;3.684;2023-07-20T04:50:00;101526.14;;;15.43;100.0
22775;BME280;11554;51.106;3.684;2023-07-20T04:55:00;101528.42000000001;;;15.48;100.0
22775;BME280;11554;51.106;3.684;2023-07-20T05:00:00;101535.55;;;15.57;100.0
22775;BME280;11554;51.106;3.684;2023-07-20T05:05:00;101529.40999999999;;;15.66;100.0
22775;BME280;11554;51.106;3.684;2023-07-20T05:10:00;101526.47;;;15.75;100.0
22775;BME280;11554;51.106;3.684;2023-07-20T05:15:00;101519.26;;;15.85;100.0
22775;BME280;11554;51.106;3.684;2023-07-20T05:20:00;101522.34999999999;;;15.99;100.0
22775;BME280;11554;51.106;3.684;2023-07-20T05:25:00;101525.66;;;16.12;100.0
22775;BME280;11554;51.106;3.684;2023-07-20T05:30:00;101527.56000000001;;;16.26;100.0
22775;BME280;11554;51.106;3.684;2023-07-20T05:35:00;101526.39;;;16.40;100.0
22775;BME280;11554;51.106;3.684;2023-07-20T05:40:00;101525.2;;;16.62;100.0
22775;BME280;11554;51.106;3.684;2023-07-20T05:45:00;101524.28;;;16.76;100.0
22775;BME280;11554;51.106;3.684;2023-07-20T05:50:00;101524.62000000001;;;16.96;100.0
22775;BME280;11554;51.106;3.684;2023-07-20T05:55:00;101520.79;;;17.18;100.0
22775;BME280;11554;51.106;3.684;2023-07-20T06:00:00;101523.83;;;17.44;100.0
22775;BME280;11554;51.106;3.684;2023-07-20T06:05:00;101525.8;;;17.82;100.0
22775;BME280;11554;51.106;3.684;2023-07-20T06:10:00;101526.76;;;18.15;100.0
22775;BME280;11554;51.106;3.684;2023-07-20T06:15:01;101530.8;;;18.44;100.0
22775;BME280;11554;51.106;3.684;2023-07-20T06:20:00;101535.17;;;18.56;100.0
22775;BME280;11554;51.106;3.684;2023-07-20T06:25:00;101538.17;;;18.80;100.0
22775;BME280;11554;51.106;3.684;2023-07-20T06:30:00;101529.92;;;19.20;100.0
22775;BME280;11554;51.106;3.684;2023-07-20T06:35:00;101531.69;;;19.34;100.0
22775;BME280;11554;51.106;3.684;2023-07-20T06:40:01;101535.46;;;20.01;100.0
22775;BME280;11554;51.106;3.684;2023-07-20T06:45:00;101538.92;;;21.92;100.0
22775;BME280;11554;51.106;3.684;2023-07-20T06:50:00;101542.96;;;22.00;91.01
22775;BME280;11554;51.106;3.684;2023-07-20T06:55:00;101552.58;;;20.93;86.86
22775;BME280;11554;51.106;3.684;2023-07-20T07:00:00;101554.33;;;20.47;89.33
22775;BME280;11554;51.106;3.684;2023-07-20T07:05:00;101550.83;;;20.66;88.09
22775;BME280;11554;51.106;3.684;2023-07-20T07:10:01;101549.56;;;20.94;89.45
22775;BME280;11554;51.106;3.684;2023-07-20T07:15:00;101553.87;;;21.45;86.68
22775;BME280;11554;51.106;3.684;2023-07-20T07:20:00;101554.25;;;21.36;85.58
22775;BME280;11554;51.106;3.684;2023-07-20T07:25:00;101550.75;;;21.54;86.28
22775;BME280;11554;51.106;3.684;2023-07-20T07:30:00;101559.48;;;21.66;85.33
22775;BME280;11554;51.106;3.684;2023-07-20T07:35:00;101563.06;;;21.52;83.63
22775;BME280;11554;51.106;3.684;2023-07-20T07:40:00;101562.69;;;22.43;85.82
22775;BME280;11554;51.106;3.684;2023-07-20T07:45:00;101554.92;;;23.51;79.37
22775;BME280;11554;51.106;3.684;2023-07-20T07:50:00;101558.76;;;23.05;81.93
22775;BME280;11554;51.106;3.684;2023-07-20T07:55:00;101562.86;;;22.54;77.3
22775;BME280;11554;51.106;3.684;2023-07-20T08:00:00;101568.91;;;23.13;81.65
22775;BME280;11554;51.106;3.684;2023-07-20T08:05:00;101572.58;;;25.28;78.3
22775;BME280;11554;51.106;3.684;2023-07-20T08:10:00;101565.02;;;26.59;73.29
22775;BME280;11554;51.106;3.684;2023-07-20T08:15:00;101563.73;;;26.01;71.55
22775;BME280;11554;51.106;3.684;2023-07-20T08:20:00;101572.96;;;25.03;71.18
22775;BME280;11554;51.106;3.684;2023-07-20T08:25:00;101571.48999999999;;;25.40;69.58
22775;BME280;11554;51.106;3.684;2023-07-20T08:30:00;101571.37;;;26.46;67.36
22775;BME280;11554;51.106;3.684;2023-07-20T08:35:00;101573.35;;;26.76;68.36
22775;BME280;11554;51.106;3.684;2023-07-20T08:40:00;101576.98000000001;;;25.38;66.89
22775;BME280;11554;51.106;3.684;2023-07-20T08:45:00;101571.22;;;25.26;69.94
22775;BME280;11554;51.106;3.684;2023-07-20T08:50:00;101570.64;;;25.20;70.37
22775;BME280;11554;51.106;3.684;2023-07-20T08:55:00;101568.05;;;24.61;69.82
22775;BME280;11554;51.106;3.684;2023-07-20T09:00:00;101566.08;;;25.01;71.79
22775;BME280;11554;51.106;3.684;2023-07-20T09:05:00;101562.62000000001;;;24.93;69.4
22775;BME280;11554;51.106;3.684;2023-07-20T09:10:00;101562.51999999999;;;23.90;73.02
22775;BME280;11554;51.106;3.684;2023-07-20T09:15:00;101563.57;;;24.47;72.06
22775;BME280;11554;51.106;3.684;2023-07-20T09:20:01;101561.87999999999;;;25.06;69.83
22775;BME280;11554;51.106;3.684;2023-07-20T09:25:00;101565.06000000001;;;25.05;69.41
22775;BME280;11554;51.106;3.684;2023-07-20T09:30:00;101560.1;;;25.22;69.62
22775;BME280;11554;51.106;3.684;2023-07-20T09:35:00;101554.83;;;25.62;66.25
22775;BME280;11554;51.106;3.684;2023-07-20T09:40:00;101554.1;;;25.91;66.87
22775;BME280;11554;51.106;3.684;2023-07-20T09:45:00;101552.08;;;26.59;64.92
22775;BME280;11554;51.106;3.684;2023-07-20T09:50:00;101547.42;;;27.25;62.75
22775;BME280;11554;51.106;3.684;2023-07-20T09:55:00;101549.1;;;27.14;63.5
22775;BME280;11554;51.106;3.684;2023-07-20T10:00:00;101549.97;;;26.47;64.47
22775;BME280;11554;51.106;3.684;2023-07-20T10:05:01;101548.83;;;26.17;64.73
22775;BME280;11554;51.106;3.684;2023-07-20T10:10:01;101543.76999999999;;;25.69;66.72
22775;BME280;11554;51.106;3.684;2023-07-20T10:15:04;101543.33;;;26.50;64.37
22775;BME280;11554;51.106;3.684;2023-07-20T10:20:00;101540.29000000001;;;26.79;65.16
22775;BME280;11554;51.106;3.684;2023-07-20T10:25:00;101540.63;;;27.23;63.57
22775;BME280;11554;51.106;3.684;2023-07-20T10:30:00;101530.62999999999;;;26.66;62.94
22775;BME280;11554;51.106;3.684;2023-07-20T10:35:00;101527.09;;;26.85;63.14
22775;BME280;11554;51.106;3.684;2023-07-20T10:45:00;101519.06999999999;;;26.34;63.15
22775;BME280;11554;51.106;3.684;2023-07-20T10:50:01;101514.22;;;25.46;65.45
22775;BME280;11554;51.106;3.684;2023-07-20T10:55:10;101512.23;;;25.89;64.04
22775;BME280;11554;51.106;3.684;2023-07-20T11:00:10;101512.2;;;26.27;64.6
22775;BME280;11554;51.106;3.684;2023-07-20T11:05:00;101509.83;;;25.76;63.99
22775;BME280;11554;51.106;3.684;2023-07-20T11:15:00;101504.45999999999;;;24.56;66.91
22775;BME280;11554;51.106;3.684;2023-07-20T11:20:00;101503.36;;;24.33;67.13
22775;BME280;11554;51.106;3.684;2023-07-20T11:25:00;101495.36;;;24.20;67.9
22775;BME280;11554;51.106;3.684;2023-07-20T11:30:00;101491.18999999999;;;23.97;67.48
22775;BME280;11554;51.106;3.684;2023-07-20T11:35:00;101491.67;;;24.04;68.21
22775;BME280;11554;51.106;3.684;2023-07-20T11:40:00;101486.97;;;24.04;67.04
22775;BME280;11554;51.106;3.684;2023-07-20T11:45:01;101489.09;;;24.15;68.37
22775;BME280;11554;51.106;3.684;2023-07-20T11:50:02;101483.61;;;24.67;66.58
22775;BME280;11554;51.106;3.684;2023-07-20T11:55:00;101480.96;;;25.10;65.85
22775;BME280;11554;51.106;3.684;2023-07-20T12:00:01;101477.04;;;24.69;66.64
22775;BME280;11554;51.106;3.684;2023-07-20T12:05:01;101475.61;;;25.16;66.56
22775;BME280;11554;51.106;3.684;2023-07-20T12:10:04;101473.65999999999;;;25.23;66.06
22775;BME280;11554;51.106;3.684;2023-07-20T12:20:00;101463.36;;;26.11;66.29
22775;BME280;11554;51.106;3.684;2023-07-20T12:25:00;101470.26;;;26.72;62.47
22775;BME280;11554;51.106;3.684;2023-07-20T12:30:00;101465.72;;;26.20;64.31
22775;BME280;11554;51.106;3.684;2023-07-20T12:35:00;101457.95000000001;;;27.35;64.89
22775;BME280;11554;51.106;3.684;2023-07-20T12:40:00;101453.28;;;27.65;61.33
22775;BME280;11554;51.106;3.684;2023-07-20T12:45:00;101452.81999999999;;;28.26;60.38
22775;BME280;11554;51.106;3.684;2023-07-20T12:50:00;101446.77;;;27.74;59.89
22775;BME280;11554;51.106;3.684;2023-07-20T12:55:00;101440.23;;;27.00;60.83
22775;BME280;11554;51.106;3.684;2023-07-20T13:00:00;101431.17;;;26.88;61.87
22775;BME280;11554;51.106;3.684;2023-07-20T13:05:00;101432.97;;;26.24;62.56
22775;BME280;11554;51.106;3.684;2023-07-20T13:10:00;101431.56;;;26.20;63.06
22775;BME280;11554;51.106;3.684;2023-07-20T13:15:00;101433.62;;;25.94;62.94
22775;BME280;11554;51.106;3.684;2023-07-20T13:20:00;101428.45;;;25.70;63.26
22775;BME280;11554;51.106;3.684;2023-07-20T13:25:00;101428.16;;;25.39;63.97
22775;BME280;11554;51.106;3.684;2023-07-20T13:30:00;101420.25;;;24.96;64.22
22775;BME280;11554;51.106;3.684;2023-07-20T13:35:00;101421.57999999999;;;24.64;65.33
22775;BME280;11554;51.106;3.684;2023-07-20T13:40:00;101439.37;;;24.28;66.66
22775;BME280;11554;51.106;3.684;2023-07-20T13:45:00;101439.89;;;23.58;69.97
22775;BME280;11554;51.106;3.684;2023-07-20T13:50:00;101447.41;;;22.93;73.12
22775;BME280;11554;51.106;3.684;2023-07-20T13:55:00;101442.36;;;22.87;74.07
22775;BME280;11554;51.106;3.684;2023-07-20T14:00:00;101444.25;;;22.49;76.52
22775;BME280;11554;51.106;3.684;2023-07-20T14:05:00;101443.56;;;22.39;79.29
22775;BME280;11554;51.106;3.684;2023-07-20T14:10:00;101443.82;;;22.17;80.73
22775;BME280;11554;51.106;3.684;2023-07-20T14:15:00;101449.21;;;22.13;80.95
22775;BME280;11554;51.106;3.684;2023-07-20T14:20:00;101456.56;;;21.85;83.04
22775;BME280;11554;51.106;3.684;2023-07-20T14:25:00;101461.8;;;21.77;86.21
22775;BME280;11554;51.106;3.684;2023-07-20T14:30:00;101456.1;;;21.62;87.42
22775;BME280;11554;51.106;3.684;2023-07-20T14:35:00;101450.26000000001;;;21.45;87.02
22775;BME280;11554;51.106;3.684;2023-07-20T14:40:00;101440.39;;;21.35;86.53
22775;BME280;11554;51.106;3.684;2023-07-20T14:45:00;101430.36;;;21.32;88.14
22775;BME280;11554;51.106;3.684;2023-07-20T14:50:00;101428.42000000001;;;21.39;87.35
22775;BME280;11554;51.106;3.684;2023-07-20T14:55:00;101430.26999999999;;;21.44;89.34
22775;BME280;11554;51.106;3.684;2023-07-20T15:00:00;101426.9;;;21.14;88.34
22775;BME280;11554;51.106;3.684;2023-07-20T15:05:00;101423.92;;;20.75;89.12
22775;BME280;11554;51.106;3.684;2023-07-20T15:10:00;101423.96;;;20.35;89.97
22775;BME280;11554;51.106;3.684;2023-07-20T15:15:02;101418.79000000001;;;20.00;93.22
22775;BME280;11554;51.106;3.684;2023-07-20T15:20:00;101415.16;;;19.76;94.78
22775;BME280;11554;51.106;3.684;2023-07-20T15:25:00;101410.13;;;19.81;97.88
22775;BME280;11554;51.106;3.684;2023-07-20T15:30:00;101399.62000000001;;;19.54;97.29
22775;BME280;11554;51.106;3.684;2023-07-20T15:35:00;101395.25;;;19.55;99.33
22775;BME280;11554;51.106;3.684;2023-07-20T15:40:00;101399.0;;;20.03;99.29
22775;BME280;11554;51.106;3.684;2023-07-20T15:45:00;101389.4;;;21.14;97.88
22775;BME280;11554;51.106;3.684;2023-07-20T15:50:00;101371.64;;;22.40;89.48
22775;BME280;11554;51.106;3.684;2023-07-20T15:55:00;101369.42;;;22.68;88.39
22775;BME280;11554;51.106;3.684;2023-07-20T16:00:00;101364.75;;;22.87;89.02
22775;BME280;11554;51.106;3.684;2023-07-20T16:05:00;101359.59;;;23.51;86.38
22775;BME280;11554;51.106;3.684;2023-07-20T16:10:00;101359.93999999999;;;24.11;85.32
22775;BME280;11554;51.106;3.684;2023-07-20T16:15:00;101353.05;;;23.26;81.68
22775;BME280;11554;51.106;3.684;2023-07-20T16:20:00;101347.34;;;23.50;83.97
22775;BME280;11554;51.106;3.684;2023-07-20T16:25:00;101343.94;;;24.23;82.12
22775;BME280;11554;51.106;3.684;2023-07-20T16:30:00;101343.83;;;24.38;81.39
22775;BME280;11554;51.106;3.684;2023-07-20T16:35:00;101340.11;;;23.76;79.29
22775;BME280;11554;51.106;3.684;2023-07-20T16:40:00;101338.75;;;23.11;81.48
22775;BME280;11554;51.106;3.684;2023-07-20T16:45:00;101333.65;;;22.62;82.57
22775;BME280;11554;51.106;3.684;2023-07-20T16:50:00;101327.95;;;22.42;82.64
22775;BME280;11554;51.106;3.684;2023-07-20T16:55:00;101322.61;;;22.25;84.09
22775;BME280;11554;51.106;3.684;2023-07-20T17:00:00;101316.14;;;21.96;84.75
22775;BME280;11554;51.106;3.684;2023-07-20T17:05:00;101318.3;;;21.97;85.45
22775;BME280;11554;51.106;3.684;2023-07-20T17:10:00;101308.91;;;21.96;84.75
22775;BME280;11554;51.106;3.684;2023-07-20T17:15:00;101315.84;;;22.06;84.84
22775;BME280;11554;51.106;3.684;2023-07-20T17:20:00;101313.67;;;22.26;83.46
22775;BME280;11554;51.106;3.684;2023-07-20T17:25:00;101312.19;;;22.49;80.23
22775;BME280;11554;51.106;3.684;2023-07-20T17:30:00;101320.2;;;22.77;80.34
22775;BME280;11554;51.106;3.684;2023-07-20T17:35:00;101313.2;;;23.30;79.73
22775;BME280;11554;51.106;3.684;2023-07-20T17:40:06;101320.78;;;22.92;79.75
22775;BME280;11554;51.106;3.684;2023-07-20T17:45:00;101325.22;;;22.62;80.31
22775;BME280;11554;51.106;3.684;2023-07-20T17:50:00;101329.12;;;22.39;80.64
22775;BME280;11554;51.106;3.684;2023-07-20T17:55:00;101322.19;;;22.22;80.16
22775;BME280;11554;51.106;3.684;2023-07-20T18:00:00;101316.49;;;22.21;79.8
22775;BME280;11554;51.106;3.684;2023-07-20T18:05:00;101309.89;;;22.07;80.23
22775;BME280;11554;51.106;3.684;2023-07-20T18:10:00;101306.44;;;21.89;81.21
22775;BME280;11554;51.106;3.684;2023-07-20T18:15:00;101307.93;;;21.77;81.51
22775;BME280;11554;51.106;3.684;2023-07-20T18:20:00;101315.25;;;21.61;81.21
22775;BME280;11554;51.106;3.684;2023-07-20T18:25:00;101311.61;;;21.46;81.52
22775;BME280;11554;51.106;3.684;2023-07-20T18:30:00;101306.31;;;21.33;81.36
22775;BME280;11554;51.106;3.684;2023-07-20T18:35:00;101303.8;;;21.16;81.98
22775;BME280;11554;51.106;3.684;2023-07-20T18:40:01;101301.34000000001;;;20.95;82.49
22775;BME280;11554;51.106;3.684;2023-07-20T18:45:00;101303.65000000001;;;20.79;84.81
22775;BME280;11554;51.106;3.684;2023-07-20T18:50:00;101305.42;;;20.61;85.17
22775;BME280;11554;51.106;3.684;2023-07-20T18:55:00;101303.3;;;20.35;85.58
22775;BME280;11554;51.106;3.684;2023-07-20T19:00:00;101302.78;;;20.16;86.75
22775;BME280;11554;51.106;3.684;2023-07-20T19:05:00;101298.15999999999;;;20.02;87.26
22775;BME280;11554;51.106;3.684;2023-07-20T19:10:01;101293.68;;;19.82;88.54
22775;BME280;11554;51.106;3.684;2023-07-20T19:15:00;101301.45999999999;;;19.60;87.69
22775;BME280;11554;51.106;3.684;2023-07-20T19:20:00;101290.77;;;19.40;88.25
22775;BME280;11554;51.106;3.684;2023-07-20T19:25:00;101291.72;;;19.15;87.73
22775;BME280;11554;51.106;3.684;2023-07-20T19:30:00;101292.13;;;18.91;88.61
22775;BME280;11554;51.106;3.684;2023-07-20T19:35:00;101292.1;;;18.63;86.69
22775;BME280;11554;51.106;3.684;2023-07-20T19:40:00;101292.72;;;18.41;89.49
22775;BME280;11554;51.106;3.684;2023-07-20T19:45:00;101291.24;;;18.15;91.1
22775;BME280;11554;51.106;3.684;2023-07-20T19:50:00;101295.95000000001;;;17.92;90.65
22775;BME280;11554;51.106;3.684;2023-07-20T19:55:00;101301.68;;;17.65;90.15
22775;BME280;11554;51.106;3.684;2023-07-20T20:00:00;101303.04;;;17.55;94.76
22775;BME280;11554;51.106;3.684;2023-07-20T20:05:00;101314.17;;;17.33;92.55
22775;BME280;11554;51.106;3.684;2023-07-20T20:10:00;101318.12;;;17.19;95.49
22775;BME280;11554;51.106;3.684;2023-07-20T20:15:00;101316.02;;;17.17;97.17
22775;BME280;11554;51.106;3.684;2023-07-20T20:20:00;101319.05;;;16.91;94.13
22775;BME280;11554;51.106;3.684;2023-07-20T20:25:00;101320.61;;;16.74;96.38
22775;BME280;11554;51.106;3.684;2023-07-20T20:30:00;101322.06;;;16.69;99.76
22775;BME280;11554;51.106;3.684;2023-07-20T20:35:00;101321.52;;;16.54;99.04
22775;BME280;11554;51.106;3.684;2023-07-20T20:40:00;101316.42;;;16.38;100.0
22775;BME280;11554;51.106;3.684;2023-07-20T20:45:00;101318.46;;;16.16;96.67
22775;BME280;11554;51.106;3.684;2023-07-20T20:50:00;101309.93999999999;;;16.06;99.78
22775;BME280;11554;51.106;3.684;2023-07-20T20:55:00;101315.15000000001;;;15.95;99.26
22775;BME280;11554;51.106;3.684;2023-07-20T21:00:00;101311.05;;;15.79;97.12
22775;BME280;11554;51.106;3.684;2023-07-20T21:05:00;101314.20000000001;;;15.78;100.0
22775;BME280;11554;51.106;3.684;2023-07-20T21:10:00;101316.49;;;15.62;99.16
22775;BME280;11554;51.106;3.684;2023-07-20T21:15:00;101314.51;;;15.55;99.67
22775;BME280;11554;51.106;3.684;2023-07-20T21:20:00;101312.83;;;15.57;100.0
22775;BME280;11554;51.106;3.684;2023-07-20T21:25:00;101308.48;;;15.51;100.0
22775;BME280;11554;51.106;3.684;2023-07-20T21:30:00;101307.81;;;15.47;100.0
22775;BME280;11554;51.106;3.684;2023-07-20T21:35:00;101312.86;;;15.28;100.0
22775;BME280;11554;51.106;3.684;2023-07-20T21:40:00;101300.92;;;15.15;100.0
22775;BME280;11554;51.106;3.684;2023-07-20T21:45:00;101296.90000000001;;;15.05;100.0
22775;BME280;11554;51.106;3.684;2023-07-20T21:50:00;101286.61;;;14.97;100.0
22775;BME280;11554;51.106;3.684;2023-07-20T21:55:00;101295.33;;;14.81;99.28
22775;BME280;11554;51.106;3.684;2023-07-20T22:00:00;101303.63;;;14.76;99.55
22775;BME280;11554;51.106;3.684;2023-07-20T22:05:00;101299.73999999999;;;14.70;100.0
22775;BME280;11554;51.106;3.684;2023-07-20T22:10:00;101296.92;;;14.76;100.0
22775;BME280;11554;51.106;3.684;2023-07-20T22:15:00;101290.75;;;14.80;100.0
22775;BME280;11554;51.106;3.684;2023-07-20T22:20:00;101288.19;;;14.60;100.0
22775;BME280;11554;51.106;3.684;2023-07-20T22:25:00;101286.14;;;14.48;100.0
22775;BME280;11554;51.106;3.684;2023-07-20T22:30:00;101284.18000000001;;;14.36;100.0
22775;BME280;11554;51.106;3.684;2023-07-20T22:35:00;101277.56000000001;;;14.33;100.0
22775;BME280;11554;51.106;3.684;2023-07-20T22:40:00;101273.24;;;14.21;100.0
22775;BME280;11554;51.106;3.684;2023-07-20T22:45:01;101279.58;;;14.12;100.0
22775;BME280;11554;51.106;3.684;2023-07-20T22:50:00;101282.3;;;14.25;100.0
22775;BME280;11554;51.106;3.684;2023-07-20T22:55:00;101276.83;;;14.27;100.0
22775;BME280;11554;51.106;3.684;2023-07-20T23:00:00;101273.15999999999;;;14.18;100.0
22775;BME280;11554;51.106;3.684;2023-07-20T23:05:00;101273.24;;;14.09;100.0
22775;BME280;11554;51.106;3.684;2023-07-20T23:10:00;101270.09000000001;;;14.05;100.0
22775;BME280;11554;51.106;3.684;2023-07-20T23:15:00;101269.53;;;14.02;100.0
22775;BME280;11554;51.106;3.684;2023-07-20T23:20:02;101273.49;;;14.01;100.0
22775;BME280;11554;51.106;3.684;2023-07-20T23:25:00;101269.11;;;13.80;100.0
22775;BME280;11554;51.106;3.684;2023-07-20T23:30:00;101270.84;;;13.71;100.0
22775;BME280;11554;51.106;3.684;2023-07-20T23:35:00;101265.28;;;13.62;100.0
22775;BME280;11554;51.106;3.684;2023-07-20T23:40:00;101270.34;;;13.66;100.0
22775;BME280;11554;51.106;3.684;2023-07-20T23:45:00;101268.59;;;13.63;100.0
22775;BME280;11554;51.106;3.684;2023-07-20T23:50:00;101264.94;;;13.71;100.0
22775;BME280;11554;51.106;3.684;2023-07-20T23:55:00;101269.26999999999;;;13.59;100.0
